sensor_id;sensor_type;location;lat;lon;timestamp;P1;durP1;ratioP1;P2;durP2;ratioP2
3735;SDS011;1883;48.202;16.310;2023-04-15T00:01:02;1.70;;;0.50;;
3735;SDS011;1883;48.202;16.310;2023-04-15T00:03:30;1.60;;;0.50;;
3735;SDS011;1883;48.202;16.310;2023-04-15T00:06:11;1.70;;;0.50;;
3735;SDS011;1883;48.202;16.310;2023-04-15T00:11:51;1.70;;;0.50;;
3735;SDS011;1883;48.202;16.310;2023-04-15T00:14:33;1.70;;;0.50;;
3735;SDS011;1883;48.202;16.310;2023-04-15T00:17:14;1.60;;;0.40;;
3735;SDS011;1883;48.202;16.310;2023-04-15T00:19:42;1.70;;;0.50;;
3735;SDS011;1883;48.202;16.310;2023-04-15T00:22:23;2.17;;;0.77;;
3735;SDS011;1883;48.202;16.310;2023-04-15T00:24:52;1.70;;;0.60;;
3735;SDS011;1883;48.202;16.310;2023-04-15T00:27:20;1.60;;;0.50;;
3735;SDS011;1883;48.202;16.310;2023-04-15T00:29:47;2.57;;;0.90;;
3735;SDS011;1883;48.202;16.310;2023-04-15T00:32:28;1.60;;;0.50;;
3735;SDS011;1883;48.202;16.310;2023-04-15T00:35:04;1.60;;;0.50;;
3735;SDS011;1883;48.202;16.310;2023-04-15T00:37:36;2.10;;;0.67;;
3735;SDS011;1883;48.202;16.310;2023-04-15T00:40:24;1.60;;;0.50;;
3735;SDS011;1883;48.202;16.310;2023-04-15T00:42:53;1.70;;;0.50;;
3735;SDS011;1883;48.202;16.310;2023-04-15T00:45:35;1.60;;;0.50;;
3735;SDS011;1883;48.202;16.310;2023-04-15T00:48:16;1.60;;;0.50;;
3735;SDS011;1883;48.202;16.310;2023-04-15T00:50:44;1.60;;;0.50;;
3735;SDS011;1883;48.202;16.310;2023-04-15T00:53:26;1.63;;;0.50;;
3735;SDS011;1883;48.202;16.310;2023-04-15T00:59:07;1.60;;;0.50;;
3735;SDS011;1883;48.202;16.310;2023-04-15T01:01:35;1.60;;;0.50;;
3735;SDS011;1883;48.202;16.310;2023-04-15T01:04:03;1.60;;;0.50;;
3735;SDS011;1883;48.202;16.310;2023-04-15T01:06:31;1.60;;;0.50;;
3735;SDS011;1883;48.202;16.310;2023-04-15T01:08:58;1.87;;;0.70;;
3735;SDS011;1883;48.202;16.310;2023-04-15T01:11:26;1.60;;;0.50;;
3735;SDS011;1883;48.202;16.310;2023-04-15T01:13:54;1.60;;;0.50;;
3735;SDS011;1883;48.202;16.310;2023-04-15T01:17:17;1.53;;;0.40;;
3735;SDS011;1883;48.202;16.310;2023-04-15T01:19:59;1.60;;;0.50;;
3735;SDS011;1883;48.202;16.310;2023-04-15T01:22:27;1.60;;;0.50;;
3735;SDS011;1883;48.202;16.310;2023-04-15T01:24:56;1.60;;;0.50;;
3735;SDS011;1883;48.202;16.310;2023-04-15T01:27:30;1.60;;;0.50;;
3735;SDS011;1883;48.202;16.310;2023-04-15T01:29:57;1.60;;;0.50;;
3735;SDS011;1883;48.202;16.310;2023-04-15T01:32:24;1.60;;;0.50;;
3735;SDS011;1883;48.202;16.310;2023-04-15T01:34:52;1.60;;;0.50;;
3735;SDS011;1883;48.202;16.310;2023-04-15T01:37:19;1.60;;;0.50;;
3735;SDS011;1883;48.202;16.310;2023-04-15T01:40:04;3.00;;;0.70;;
3735;SDS011;1883;48.202;16.310;2023-04-15T01:42:42;1.60;;;0.50;;
3735;SDS011;1883;48.202;16.310;2023-04-15T01:45:12;1.60;;;0.50;;
3735;SDS011;1883;48.202;16.310;2023-04-15T01:47:53;1.57;;;0.50;;
3735;SDS011;1883;48.202;16.310;2023-04-15T01:50:37;1.60;;;0.50;;
3735;SDS011;1883;48.202;16.310;2023-04-15T01:53:04;1.53;;;0.47;;
3735;SDS011;1883;48.202;16.310;2023-04-15T01:55:30;1.57;;;0.50;;
3735;SDS011;1883;48.202;16.310;2023-04-15T01:57:59;8.90;;;1.20;;
3735;SDS011;1883;48.202;16.310;2023-04-15T02:00:26;1.60;;;0.50;;
3735;SDS011;1883;48.202;16.310;2023-04-15T02:02:54;1.53;;;0.50;;
3735;SDS011;1883;48.202;16.310;2023-04-15T02:05:21;1.60;;;0.50;;
3735;SDS011;1883;48.202;16.310;2023-04-15T02:07:48;1.70;;;0.60;;
3735;SDS011;1883;48.202;16.310;2023-04-15T02:10:15;1.60;;;0.53;;
3735;SDS011;1883;48.202;16.310;2023-04-15T02:12:42;1.60;;;0.50;;
3735;SDS011;1883;48.202;16.310;2023-04-15T02:15:11;1.60;;;0.50;;
3735;SDS011;1883;48.202;16.310;2023-04-15T02:17:38;1.60;;;0.60;;
3735;SDS011;1883;48.202;16.310;2023-04-15T02:20:07;1.60;;;0.50;;
3735;SDS011;1883;48.202;16.310;2023-04-15T02:22:34;1.57;;;0.50;;
3735;SDS011;1883;48.202;16.310;2023-04-15T02:25:01;1.80;;;0.60;;
3735;SDS011;1883;48.202;16.310;2023-04-15T02:27:29;1.60;;;0.50;;
3735;SDS011;1883;48.202;16.310;2023-04-15T02:29:56;1.60;;;0.50;;
3735;SDS011;1883;48.202;16.310;2023-04-15T02:32:25;1.60;;;0.50;;
3735;SDS011;1883;48.202;16.310;2023-04-15T02:34:53;1.60;;;0.50;;
3735;SDS011;1883;48.202;16.310;2023-04-15T02:37:20;1.60;;;0.50;;
3735;SDS011;1883;48.202;16.310;2023-04-15T02:39:47;1.60;;;0.50;;
3735;SDS011;1883;48.202;16.310;2023-04-15T02:42:14;1.57;;;0.50;;
3735;SDS011;1883;48.202;16.310;2023-04-15T02:44:41;1.60;;;0.50;;
3735;SDS011;1883;48.202;16.310;2023-04-15T02:47:08;1.50;;;0.50;;
3735;SDS011;1883;48.202;16.310;2023-04-15T02:49:37;1.60;;;0.50;;
3735;SDS011;1883;48.202;16.310;2023-04-15T02:52:04;1.60;;;0.50;;
3735;SDS011;1883;48.202;16.310;2023-04-15T02:54:31;1.60;;;0.50;;
3735;SDS011;1883;48.202;16.310;2023-04-15T02:56:59;1.60;;;0.50;;
3735;SDS011;1883;48.202;16.310;2023-04-15T02:59:26;1.60;;;0.50;;
3735;SDS011;1883;48.202;16.310;2023-04-15T03:01:53;1.60;;;0.50;;
3735;SDS011;1883;48.202;16.310;2023-04-15T03:04:24;1.53;;;0.50;;
3735;SDS011;1883;48.202;16.310;2023-04-15T03:06:55;1.90;;;0.60;;
3735;SDS011;1883;48.202;16.310;2023-04-15T03:09:22;1.63;;;0.50;;
3735;SDS011;1883;48.202;16.310;2023-04-15T03:11:49;1.50;;;0.50;;
3735;SDS011;1883;48.202;16.310;2023-04-15T03:14:18;1.60;;;0.50;;
3735;SDS011;1883;48.202;16.310;2023-04-15T03:16:45;1.57;;;0.50;;
3735;SDS011;1883;48.202;16.310;2023-04-15T03:19:14;1.60;;;0.50;;
3735;SDS011;1883;48.202;16.310;2023-04-15T03:21:41;1.60;;;0.50;;
3735;SDS011;1883;48.202;16.310;2023-04-15T03:24:10;1.60;;;0.50;;
3735;SDS011;1883;48.202;16.310;2023-04-15T03:26:37;1.70;;;0.53;;
3735;SDS011;1883;48.202;16.310;2023-04-15T03:29:04;1.60;;;0.50;;
3735;SDS011;1883;48.202;16.310;2023-04-15T03:31:31;1.50;;;0.50;;
3735;SDS011;1883;48.202;16.310;2023-04-15T03:34:12;1.60;;;0.50;;
3735;SDS011;1883;48.202;16.310;2023-04-15T03:36:39;1.60;;;0.50;;
3735;SDS011;1883;48.202;16.310;2023-04-15T03:39:06;1.93;;;0.50;;
3735;SDS011;1883;48.202;16.310;2023-04-15T03:41:34;1.60;;;0.50;;
3735;SDS011;1883;48.202;16.310;2023-04-15T03:44:01;1.60;;;0.50;;
3735;SDS011;1883;48.202;16.310;2023-04-15T03:46:28;1.57;;;0.50;;
3735;SDS011;1883;48.202;16.310;2023-04-15T03:48:55;1.70;;;0.70;;
3735;SDS011;1883;48.202;16.310;2023-04-15T03:51:22;1.53;;;0.50;;
3735;SDS011;1883;48.202;16.310;2023-04-15T03:53:53;1.70;;;0.60;;
3735;SDS011;1883;48.202;16.310;2023-04-15T03:56:20;1.90;;;0.60;;
3735;SDS011;1883;48.202;16.310;2023-04-15T04:01:56;1.53;;;0.50;;
3735;SDS011;1883;48.202;16.310;2023-04-15T04:04:24;1.60;;;0.50;;
3735;SDS011;1883;48.202;16.310;2023-04-15T04:07:05;2.27;;;0.83;;
3735;SDS011;1883;48.202;16.310;2023-04-15T04:09:46;1.60;;;0.50;;
3735;SDS011;1883;48.202;16.310;2023-04-15T04:12:27;1.60;;;0.50;;
3735;SDS011;1883;48.202;16.310;2023-04-15T04:14:55;1.57;;;0.50;;
3735;SDS011;1883;48.202;16.310;2023-04-15T04:20:24;1.60;;;0.50;;
3735;SDS011;1883;48.202;16.310;2023-04-15T04:22:52;1.60;;;0.50;;
3735;SDS011;1883;48.202;16.310;2023-04-15T04:25:21;1.60;;;0.50;;
3735;SDS011;1883;48.202;16.310;2023-04-15T04:28:02;1.60;;;0.50;;
3735;SDS011;1883;48.202;16.310;2023-04-15T04:30:34;1.60;;;0.50;;
3735;SDS011;1883;48.202;16.310;2023-04-15T04:33:06;1.60;;;0.50;;
3735;SDS011;1883;48.202;16.310;2023-04-15T04:35:37;1.60;;;0.50;;
3735;SDS011;1883;48.202;16.310;2023-04-15T04:38:18;1.90;;;0.70;;
3735;SDS011;1883;48.202;16.310;2023-04-15T04:40:52;1.60;;;0.50;;
3735;SDS011;1883;48.202;16.310;2023-04-15T04:43:40;1.57;;;0.50;;
3735;SDS011;1883;48.202;16.310;2023-04-15T04:46:21;2.00;;;0.90;;
3735;SDS011;1883;48.202;16.310;2023-04-15T04:49:02;1.60;;;0.50;;
3735;SDS011;1883;48.202;16.310;2023-04-15T04:51:34;3.30;;;0.90;;
3735;SDS011;1883;48.202;16.310;2023-04-15T04:54:11;1.70;;;0.60;;
3735;SDS011;1883;48.202;16.310;2023-04-15T04:56:52;4.53;;;1.53;;
3735;SDS011;1883;48.202;16.310;2023-04-15T04:59:23;1.67;;;0.50;;
3735;SDS011;1883;48.202;16.310;2023-04-15T05:02:05;1.63;;;0.50;;
3735;SDS011;1883;48.202;16.310;2023-04-15T05:04:47;1.80;;;0.67;;
3735;SDS011;1883;48.202;16.310;2023-04-15T05:07:37;1.60;;;0.50;;
3735;SDS011;1883;48.202;16.310;2023-04-15T05:10:05;2.00;;;0.70;;
3735;SDS011;1883;48.202;16.310;2023-04-15T05:12:36;1.70;;;0.50;;
3735;SDS011;1883;48.202;16.310;2023-04-15T05:15:17;1.70;;;0.50;;
3735;SDS011;1883;48.202;16.310;2023-04-15T05:17:44;1.67;;;0.50;;
3735;SDS011;1883;48.202;16.310;2023-04-15T05:20:12;1.90;;;0.70;;
3735;SDS011;1883;48.202;16.310;2023-04-15T05:25:46;1.90;;;0.70;;
3735;SDS011;1883;48.202;16.310;2023-04-15T05:28:13;1.63;;;0.50;;
3735;SDS011;1883;48.202;16.310;2023-04-15T05:30:53;1.70;;;0.50;;
3735;SDS011;1883;48.202;16.310;2023-04-15T05:33:25;1.70;;;0.50;;
3735;SDS011;1883;48.202;16.310;2023-04-15T05:36:06;1.70;;;0.50;;
3735;SDS011;1883;48.202;16.310;2023-04-15T05:41:50;1.70;;;0.50;;
3735;SDS011;1883;48.202;16.310;2023-04-15T05:44:32;1.77;;;0.50;;
3735;SDS011;1883;48.202;16.310;2023-04-15T05:47:08;1.70;;;0.50;;
3735;SDS011;1883;48.202;16.310;2023-04-15T05:49:35;2.00;;;0.80;;
3735;SDS011;1883;48.202;16.310;2023-04-15T05:52:18;2.47;;;0.93;;
3735;SDS011;1883;48.202;16.310;2023-04-15T05:54:48;1.80;;;0.60;;
3735;SDS011;1883;48.202;16.310;2023-04-15T05:57:23;1.80;;;0.50;;
3735;SDS011;1883;48.202;16.310;2023-04-15T06:00:04;1.77;;;0.50;;
3735;SDS011;1883;48.202;16.310;2023-04-15T06:02:46;2.10;;;0.60;;
3735;SDS011;1883;48.202;16.310;2023-04-15T06:05:24;1.83;;;0.50;;
3735;SDS011;1883;48.202;16.310;2023-04-15T06:07:52;1.90;;;0.50;;
3735;SDS011;1883;48.202;16.310;2023-04-15T06:10:33;3.13;;;1.13;;
3735;SDS011;1883;48.202;16.310;2023-04-15T06:22:35;2.00;;;0.60;;
3735;SDS011;1883;48.202;16.310;2023-04-15T06:25:05;2.00;;;0.60;;
3735;SDS011;1883;48.202;16.310;2023-04-15T06:27:47;1.90;;;0.50;;
3735;SDS011;1883;48.202;16.310;2023-04-15T06:30:37;2.00;;;0.50;;
3735;SDS011;1883;48.202;16.310;2023-04-15T06:33:12;1.83;;;0.50;;
3735;SDS011;1883;48.202;16.310;2023-04-15T06:35:55;2.20;;;0.63;;
3735;SDS011;1883;48.202;16.310;2023-04-15T06:48:13;2.30;;;0.90;;
3735;SDS011;1883;48.202;16.310;2023-04-15T06:50:59;2.10;;;0.70;;
3735;SDS011;1883;48.202;16.310;2023-04-15T06:53:39;2.10;;;0.60;;
3735;SDS011;1883;48.202;16.310;2023-04-15T06:56:10;2.03;;;0.50;;
3735;SDS011;1883;48.202;16.310;2023-04-15T06:58:52;2.90;;;0.93;;
3735;SDS011;1883;48.202;16.310;2023-04-15T07:01:33;4.30;;;0.70;;
3735;SDS011;1883;48.202;16.310;2023-04-15T07:23:19;2.30;;;0.63;;
3735;SDS011;1883;48.202;16.310;2023-04-15T07:26:27;2.10;;;0.50;;
3735;SDS011;1883;48.202;16.310;2023-04-15T07:29:39;2.10;;;0.50;;
3735;SDS011;1883;48.202;16.310;2023-04-15T07:32:21;3.13;;;0.90;;
3735;SDS011;1883;48.202;16.310;2023-04-15T08:21:40;2.40;;;0.60;;
3735;SDS011;1883;48.202;16.310;2023-04-15T08:24:10;2.67;;;0.83;;
3735;SDS011;1883;48.202;16.310;2023-04-15T08:27:04;3.10;;;1.10;;
3735;SDS011;1883;48.202;16.310;2023-04-15T08:29:45;2.67;;;0.60;;
3735;SDS011;1883;48.202;16.310;2023-04-15T08:32:14;2.20;;;0.50;;
3735;SDS011;1883;48.202;16.310;2023-04-15T08:34:55;2.40;;;0.50;;
3735;SDS011;1883;48.202;16.310;2023-04-15T09:29:26;2.40;;;0.50;;
3735;SDS011;1883;48.202;16.310;2023-04-15T09:31:54;2.70;;;0.80;;
3735;SDS011;1883;48.202;16.310;2023-04-15T09:34:21;2.30;;;0.50;;
3735;SDS011;1883;48.202;16.310;2023-04-15T09:37:01;2.23;;;0.50;;
3735;SDS011;1883;48.202;16.310;2023-04-15T23:25:31;4.77;;;1.70;;
3735;SDS011;1883;48.202;16.310;2023-04-15T23:28:28;4.20;;;1.60;;
3735;SDS011;1883;48.202;16.310;2023-04-15T23:31:12;7.87;;;2.20;;
3735;SDS011;1883;48.202;16.310;2023-04-15T23:33:56;6.90;;;2.37;;
3735;SDS011;1883;48.202;16.310;2023-04-15T23:36:38;6.50;;;2.57;;
3735;SDS011;1883;48.202;16.310;2023-04-15T23:39:29;6.07;;;2.70;;
